Aérodrome :
LOGIN :

S'inscrire | Disclaimer

   EN    FR    IT 

 










Légende :    VFR   VFR Marginal   IFR   IFR Intensif   IFR Très Intensif
Visi : 
Plafond : 
>= 8 km
>= 3000ft
5 à 8 km
1000 à 3000 ft
1500m à 5 km
500 à 1000 ft
800 à 1500m
200 à 500 ft
< 800m
< 200 ft
Symboles :   Orages  Brouillard  Fortes neiges  Fortes précipitations  Vent > 20 kt
SIGMETs :   Divers  Orages  Givrage  Turbulence  Onde Orograph.  Cendres Volcan.






- Altitude de l'aérodrome : 144 ft
- Code IATA : PGF


LFMP - Perpignan

DERNIER METAR :
  • 190200Z AUTO 29012KT 9999 FEW001 17/08 Q1016

METARs EXPIRÉS :
  • 190130Z AUTO 29010KT CAVOK 17/09 Q1016
  • 190100Z AUTO 30006KT 250V330 9999 FEW001 17/09 Q1016
  • 190030Z AUTO 31005KT 270V360 9999 BKN086 17/10 Q1016
  • 190000Z AUTO 31011KT 280V360 9999 BKN086 17/10 Q1016
  • 182330Z AUTO 31012KT 280V340 9999 BKN084 BKN140 17/10 Q1016

TAF TAF LFMP
Valide du 18 à 15h jusqu'au 19 à 15h UTC


181400Z 1815/1915 13005KT 9999 BKN060
TEMPO 1815/1822 VRB15G25KT SHRA FEW030CB
PROB40
TEMPO 1816/1820 VRB20G30KT 3000 TSRA SCT025CB
BECMG 1822/1824 31012KT SCT080
ATIS : +33 4 68 63 75 12



MET'MAP, la Météo Aéronautique d'un coup d'oeil ! - Copyright ORBIFLY Décembre 2007 - Disclaimer

ORBIFLY MET'MAP TEAM :

Programmation & Développement : Alexandra Zaïnal
Sur une idée originale de : Baudouin d'Aumeries
Assistance à la programmation : Marc-Olivier Méhu
Soutien technique & logistique : Manuel Goepfert

Contact : metmap@orbifly.com




SOURCES & CREDITS :

   NOAA